الصفحة الرئيسية
METAR-TAF:

METAR-TAF

مطار :

Dzaoudzi, مايوت

دائرة عرض: 12-48S, خط طول: 045-17E, ارتفاع: 8 متر

مراقبة الطقس الحالي

تاريخ ووقت الإصدار 26 دقيقة قبل الساعة 22:00UTC
ريح 16 عقدة من الجنوب
درجة الحرارة 25°درجة مئوية
الرطوبة 69%
ضغط 1018 hPa
الرؤية 10 كم أو أكثر
الغيوم لا تقل 1500 م ولا وجود لمزنة ركامية السحاب الأسود

METAR: FMCZ 252200Z AUTO 19016KT CAVOK 25/19 Q1018 TEMPO SHRA SCT018TCU BECMG 16020G30KT

زمن: 01:26 (22:26 UTC)

توقعات

تاريخ ووقت الإصدار 5ساعات و 26 دقيقة قبل الساعة 17:00UTC
التوقعات صالحة من25 الساعة 18 UTC إلى 26 الساعة 18 UTC
ريح 13 عقدة من الجنوب
الرؤية 10 كم أو أكثر
غيوم متفرقة على ارتفاع 3000 قدم
أصبح
من 25 الساعة 21 UTC إلى 25 الساعة 23 UTC
ريح 20 عقدة من الجنوب/الجنوب الشرقي تتزايد حتى 30 عقدة
نظرية الاحتمالات 30% :
مؤقت
من 25 الساعة 23 UTC إلى 26 الساعة 02 UTC
غيوم متفرقة على ارتفاع 1800 قدم, مزن ركامية عمودية.
زخات من المطر

TAF: FMCZ 251700Z 2518/2618 19013KT 9999 SCT030 BECMG 2521/2523 16020G30KT PROB30 TEMPO 2523/2602 SHRA SCT018TCU

أرصاد الطقس والتوقعات من أكثر من 4000 مطار (تقارير الطقس للمطار METAR والتنبؤ بالطقس بالمطارTAF).

المحطات المتاحة هي النقط الصفراء والحمراء على الخريطة.

حرك المؤشر فوق النقطة لمعرفة اسم المحطة.

ثم انقر لمعرفة أرصاد وتوقعات الطقس.

لتغيير الخارطة: اضغط على الأزرار الخضراء مع رمز الصليب الأسود للتكبير. على الزر الأخضر مع شرطة للتصغير، أو على الأسهم الخضراء للخرائط المجاورة.


METAR-TAF: